PHOENIX SKY HARBOR INTL

KPHX (PHX)
Phoenix, Arizona
Towered

Vatsim Metar:
KPHX 291851Z 00000KT 10SM CLR 16/M04 A2991 RMK AO2 SLP121 T01611044 $

PHOENIX SKY HARBOR INTL ATC

PHX289 - 0.000 - Jamie KMCO

Traffic

Inbound:
Ident
Type
Name
ETA
Phase
SWA501
B738
Rick Bynum 76S
19:55 Z
Descent

Outbound:
Ident
Type
Name
Destination
Phase
AAL650
A320
Luke Funston KVGT
KLAX
Boarding
SWA2774
B738
cm KADS
KDAL
Boarding
N158PS
C208
Tom KMCC
O22
Climb